North Tazewell, VA (24630)

01:53 AM EDT วัน กันยายน 20, 2014 (GMT -0400)
Parkview Heights | Change Station
CLOSE
Current Station
Personal Weather Stations
Location: Bluefield, VA
Elevation: 2402 ft
Nearby Weather Stations

Elev 2402 ft 37.24 °N, 81.28 °W | Updated 0 second ago

มีเมฆคลุมเป็นส่วนใหญ่
มีเมฆคลุมเป็นส่วนใหญ่
62.1 ฟาเรนไฮน์
Feels Like 62.1 ฟาเรนไฮน์
N
4.0
ลม ความผันแปร ลม from ทางทิศตะวันตกเฉียงเหนือ
Gusts 11.0 mph

วันนี้
High -- | Low -- ฟาเรนไฮน์
--% Chance of Precip.
Yesterday
High -- | Low -- ฟาเรนไฮน์
Precip. -- นิ้ว
7:12 AM 7:26 PM
เดือนเสี้ยว, 14% visible
ความดัน 30.24 นิ้ว
ทัศนวิสัย 10.0 ไมล์
เมฆ มีเมฆคลุมเป็นบางส่วน 2100 ft
อุณหภูมิที่อากาศอาจจับตัวเป็นหยาดน้ำค้าง 57 ฟาเรนไฮน์
ความชื้น 83%
Rainfall 0.00 นิ้ว
Snow Depth Not available.
UV 0.0 out of 12
Pollen 5.10 out of 12
Air Quality Not available.
Flu Activity Not available.
METAR KJFZ 200535Z AUTO 13005KT 10SM SCT021 18/14 A3024 RMK AO2 T01760140

More Conditions Fewer Conditions

ความดัน 30.24 นิ้ว
ทัศนวิสัย 10.0 ไมล์
เมฆ มีเมฆคลุมเป็นบางส่วน 2100 ft
อุณหภูมิที่อากาศอาจจับตัวเป็นหยาดน้ำค้าง 57 ฟาเรนไฮน์
ความชื้น 83%
Rainfall 0.00 นิ้ว
Snow Depth Not available.
UV 0.0 out of 12
Pollen 5.10 out of 12
Air Quality Not available.
Flu Activity Not available.
METAR KJFZ 200535Z AUTO 13005KT 10SM SCT021 18/14 A3024 RMK AO2 T01760140

More Conditions Fewer Conditions

10-Day Weather Forecast

Almanac

ดาราศาสตร์

Sep. 20, 2014 Rise Set
Actual Time 7:12 AM EDT 7:26 PM EDT
Civil Twilight 6:46 AM EDT 7:51 PM EDT
Nautical Twilight 6:15 AM EDT 8:22 PM EDT
Astronomical Twilight 5:44 AM EDT 8:53 PM EDT
Moon 3:53 AM EDT 5:25 PM EDT
Length Of Visible Light 13h 05m
ความยาวของวัน
12h 13m
Tomorrow will be 2m 21s shorter.
เดือนเสี้ยว, 14% of the Moon is Illuminated
วันนี้
เดือนเสี้ยว
Sep 24
New
Oct 1
ไตรมาสแรก
Oct 8
พระจันทร์เต็มดวง
Oct 15
ไตรมาสล่าสุด

Today's Extremes

State Highs State Lows

Community

WunderPhotos

Upload Photos

1,754,777 photos uploaded!

WunderBlogs® & News

Nearby

Snow Depth

Station Depth Elevation
No new snow has been reported.

Earthquake Activity

City Distance Mag. Time & Date
No recent earthquake activity has been reported nearby.
Minimum magnitude displayed is 2.5.

Coastal Water Temperatures

สถานที่ อุณหภูมิ
No Stations Reporting

Nearby Weather Stations